Time;durP1;ratioP1;P1;durP2;ratioP2;P2;SDS_P1;SDS_P2;PMS_P1;PMS_P2;Temp;Humidity;BMP_temperature;BMP_pressure;BME280_temperature;BME280_humidity;BME280_pressure;Samples;Min_cycle;Max_cycle;Signal;HPM_P1;HPM_P2
2022/01/08 00:02:15;;;;;;;1.60;1.33;;;2.00;99.90;;;;;;5027215;28;20674;-84
2022/01/08 00:04:42;;;;;;;1.35;1.00;;;2.00;99.90;;;;;;5029907;28;20204;-81
2022/01/08 00:07:08;;;;;;;4.30;1.38;;;2.10;99.90;;;;;;5026807;28;20231;-82
2022/01/08 00:09:35;;;;;;;1.98;1.50;;;2.10;99.90;;;;;;5019778;28;20204;-82
2022/01/08 00:12:02;;;;;;;1.50;1.40;;;2.10;99.90;;;;;;5019443;28;20199;-83
2022/01/08 00:14:29;;;;;;;1.02;0.90;;;2.10;99.90;;;;;;5019645;28;20239;-82
2022/01/08 00:16:58;;;;;;;1.80;1.70;;;2.20;99.90;;;;;;5019256;28;20219;-82
2022/01/08 00:19:25;;;;;;;1.38;1.10;;;2.30;99.90;;;;;;5019414;28;20207;-82
2022/01/08 00:21:52;;;;;;;1.42;1.33;;;2.30;99.90;;;;;;5019211;28;20203;-82
2022/01/08 00:24:18;;;;;;;1.85;1.20;;;2.40;99.90;;;;;;5019542;28;20208;-82
2022/01/08 00:26:45;;;;;;;1.65;1.55;;;2.30;99.90;;;;;;5018799;28;20283;-82
2022/01/08 00:29:12;;;;;;;1.25;1.17;;;2.40;99.90;;;;;;5019590;28;20260;-82
2022/01/08 00:31:39;;;;;;;3.85;2.13;;;2.40;99.90;;;;;;5018804;28;20209;-82
2022/01/08 00:34:08;;;;;;;5.80;2.88;;;2.30;99.90;;;;;;5018456;28;20680;-81
2022/01/08 00:36:34;;;;;;;2.45;2.25;;;2.30;99.90;;;;;;5019099;28;20225;-82
2022/01/08 00:39:01;;;;;;;3.85;2.10;;;2.30;99.90;;;;;;5018920;28;20219;-82
2022/01/08 00:41:28;;;;;;;1.60;1.50;;;2.30;99.90;;;;;;5018312;28;20205;-81
2022/01/08 00:43:55;;;;;;;1.75;1.58;;;2.30;99.90;;;;;;5018560;28;20695;-81
2022/01/08 00:46:21;;;;;;;2.10;2.00;;;2.30;99.90;;;;;;5016461;28;20647;-82
2022/01/08 00:48:48;;;;;;;3.85;2.03;;;2.30;99.90;;;;;;5017727;28;20591;-82
2022/01/08 00:51:16;;;;;;;2.08;1.88;;;2.20;99.90;;;;;;5017187;28;20208;-83
2022/01/08 00:53:43;;;;;;;3.17;2.17;;;2.30;99.90;;;;;;5016539;28;20211;-82
2022/01/08 00:56:13;;;;;;;2.20;1.70;;;2.30;99.90;;;;;;5016327;28;20222;-82
2022/01/08 00:58:40;;;;;;;2.22;2.13;;;2.30;99.90;;;;;;5016920;28;20195;-82
2022/01/08 01:01:07;;;;;;;1.70;1.60;;;2.30;99.90;;;;;;5016685;28;20212;-84
2022/01/08 01:03:33;;;;;;;2.30;2.00;;;2.30;99.90;;;;;;5016923;28;20203;-85
2022/01/08 01:06:00;;;;;;;4.10;2.08;;;2.30;99.90;;;;;;5017421;28;20238;-83
2022/01/08 01:08:28;;;;;;;2.03;1.92;;;2.40;99.90;;;;;;5017823;28;20696;-84
2022/01/08 01:10:55;;;;;;;1.60;1.50;;;2.40;99.90;;;;;;5017173;28;20209;-84
2022/01/08 01:13:22;;;;;;;1.95;1.85;;;2.40;99.90;;;;;;5018969;28;20213;-84
2022/01/08 01:15:48;;;;;;;2.55;2.33;;;2.50;99.90;;;;;;5018134;28;20231;-84
2022/01/08 01:18:15;;;;;;;2.53;2.13;;;2.50;99.90;;;;;;5018743;28;20209;-84
2022/01/08 01:20:42;;;;;;;1.70;1.60;;;2.50;99.90;;;;;;5018040;28;20247;-84
2022/01/08 01:23:12;;;;;;;2.20;1.80;;;2.50;99.90;;;;;;4998095;28;20648;-83
2022/01/08 01:25:46;;;;;;;2.38;2.17;;;2.50;99.90;;;;;;5012239;28;20227;-84
2022/01/08 01:28:28;;;;;;;1.50;1.40;;;2.50;99.90;;;;;;5018309;28;20235;-85
2022/01/08 01:42:20;;;;;;;1.75;1.65;;;2.50;99.90;;;;;;4999244;28;20256;-85
2022/01/08 01:47:35;;;;;;;2.00;1.90;;;2.50;99.90;;;;;;5018984;28;20228;-87
2022/01/08 01:50:03;;;;;;;2.97;1.90;;;2.50;99.90;;;;;;5018427;28;20215;-85
2022/01/08 01:52:30;;;;;;;3.47;2.00;;;2.50;99.90;;;;;;5018746;28;20579;-85
2022/01/08 01:54:56;;;;;;;1.55;1.45;;;2.50;99.90;;;;;;5018184;28;20306;-85
2022/01/08 01:57:26;;;;;;;1.75;1.65;;;2.50;99.90;;;;;;5019675;28;20201;-83
2022/01/08 01:59:53;;;;;;;2.17;1.58;;;2.50;99.90;;;;;;5018606;28;20203;-84
2022/01/08 02:02:20;;;;;;;1.70;1.60;;;2.50;99.90;;;;;;5019234;28;20211;-83
2022/01/08 02:04:46;;;;;;;1.40;1.38;;;2.50;99.90;;;;;;5018394;28;20213;-86
2022/01/08 02:07:13;;;;;;;2.65;1.50;;;2.50;99.90;;;;;;5018275;28;20233;-84
2022/01/08 02:09:40;;;;;;;2.50;1.58;;;2.50;99.90;;;;;;5017135;28;20199;-83
2022/01/08 02:12:10;;;;;;;2.35;1.42;;;2.40;99.90;;;;;;5017359;28;20251;-82
2022/01/08 02:14:40;;;;;;;1.67;1.58;;;2.50;99.90;;;;;;5016943;28;20227;-82
2022/01/08 02:17:07;;;;;;;2.75;1.90;;;2.50;99.90;;;;;;5017046;28;20214;-82
2022/01/08 02:19:35;;;;;;;1.63;1.60;;;2.50;99.90;;;;;;5018325;28;20226;-85
2022/01/08 02:22:05;;;;;;;1.98;1.33;;;2.60;99.90;;;;;;5021127;28;20262;-84
2022/01/08 02:24:32;;;;;;;1.25;1.10;;;2.60;99.90;;;;;;5021216;28;20207;-84
2022/01/08 02:26:59;;;;;;;1.15;1.05;;;2.70;99.90;;;;;;5021746;28;20281;-84
2022/01/08 02:29:26;;;;;;;1.30;0.75;;;2.70;99.90;;;;;;5021217;28;20212;-83
2022/01/08 02:31:55;;;;;;;1.42;1.35;;;2.80;99.90;;;;;;5021027;28;20207;-82
2022/01/08 02:34:22;;;;;;;1.20;1.10;;;2.90;99.90;;;;;;5021613;28;20212;-84
2022/01/08 02:36:49;;;;;;;1.58;1.02;;;2.80;99.90;;;;;;5020250;28;20229;-83
2022/01/08 02:39:17;;;;;;;1.38;1.38;;;2.90;99.90;;;;;;5020404;28;20204;-84
2022/01/08 02:41:44;;;;;;;1.10;1.10;;;2.90;99.90;;;;;;5020489;28;20203;-82
2022/01/08 02:44:12;;;;;;;0.80;0.80;;;2.80;99.90;;;;;;5020447;28;20237;-82
2022/01/08 02:46:40;;;;;;;2.03;0.90;;;2.90;99.90;;;;;;5020719;28;20228;-81
2022/01/08 02:49:06;;;;;;;2.97;1.55;;;2.90;99.90;;;;;;5020510;28;20218;-81
2022/01/08 02:51:35;;;;;;;1.20;0.80;;;3.00;99.90;;;;;;5019404;28;20727;-81
2022/01/08 02:54:02;;;;;;;1.08;1.00;;;3.00;99.90;;;;;;5020666;28;20629;-81
2022/01/08 02:56:30;;;;;;;1.40;1.30;;;3.00;99.90;;;;;;5019872;28;20217;-81
2022/01/08 02:58:57;;;;;;;1.33;1.20;;;2.90;99.90;;;;;;5020468;28;20254;-81
2022/01/08 03:01:23;;;;;;;0.98;0.98;;;2.90;99.90;;;;;;5019992;28;20204;-81
2022/01/08 03:03:52;;;;;;;2.65;1.83;;;3.00;99.90;;;;;;5020697;28;20207;-81
2022/01/08 03:06:19;;;;;;;2.15;1.45;;;3.00;99.90;;;;;;5020382;28;20639;-81
2022/01/08 03:08:45;;;;;;;1.58;1.35;;;3.00;99.90;;;;;;5020491;28;20208;-81
2022/01/08 03:11:12;;;;;;;1.58;1.42;;;3.00;99.90;;;;;;5021163;28;20204;-80
2022/01/08 03:13:40;;;;;;;1.25;1.15;;;3.00;99.90;;;;;;5020481;28;20227;-81
2022/01/08 03:16:07;;;;;;;1.20;1.10;;;2.90;99.90;;;;;;5019322;28;20234;-83
2022/01/08 03:18:35;;;;;;;1.10;1.10;;;2.90;99.90;;;;;;5017617;28;20210;-81
2022/01/08 03:21:12;;;;;;;1.02;1.00;;;2.90;99.90;;;;;;5018366;28;20209;-81
2022/01/08 03:23:44;;;;;;;2.35;1.02;;;2.80;99.90;;;;;;5018750;28;20232;-80
2022/01/08 03:26:11;;;;;;;1.35;1.30;;;2.80;99.90;;;;;;5018821;28;20280;-81
2022/01/08 03:28:39;;;;;;;1.90;1.10;;;2.90;99.90;;;;;;5018626;28;20212;-81
2022/01/08 03:31:06;;;;;;;1.52;1.45;;;3.00;99.90;;;;;;5018970;28;20254;-81
2022/01/08 03:33:32;;;;;;;1.92;1.83;;;3.00;99.90;;;;;;5019498;28;20215;-81
2022/01/08 03:35:59;;;;;;;1.50;1.02;;;2.80;99.90;;;;;;5019532;28;20298;-81
2022/01/08 03:38:26;;;;;;;1.33;1.15;;;2.80;99.90;;;;;;5019844;28;20683;-81
2022/01/08 03:40:53;;;;;;;1.77;1.58;;;2.70;99.90;;;;;;5019249;28;20278;-81
2022/01/08 03:43:20;;;;;;;1.80;1.70;;;2.70;99.90;;;;;;5019386;28;20254;-81
2022/01/08 03:45:48;;;;;;;3.15;1.88;;;2.70;99.90;;;;;;5020052;28;20239;-81
2022/01/08 03:48:26;;;;;;;2.45;1.70;;;2.70;99.90;;;;;;5019254;28;20249;-81
2022/01/08 03:50:53;;;;;;;3.20;1.45;;;2.60;99.90;;;;;;5019037;28;20228;-81
2022/01/08 03:53:20;;;;;;;2.15;1.48;;;2.60;99.90;;;;;;5019782;28;20257;-81
2022/01/08 03:55:46;;;;;;;0.85;0.85;;;2.60;99.90;;;;;;5019659;28;20290;-81
2022/01/08 03:58:13;;;;;;;2.40;2.20;;;2.50;99.90;;;;;;5020189;28;20263;-81
2022/01/08 04:00:40;;;;;;;3.85;2.72;;;2.50;99.90;;;;;;5019650;28;20205;-81
2022/01/08 04:03:08;;;;;;;2.53;1.98;;;2.60;99.90;;;;;;5018283;28;20207;-82
2022/01/08 04:05:34;;;;;;;2.28;2.10;;;2.60;99.90;;;;;;5017417;28;20234;-82
2022/01/08 04:08:01;;;;;;;2.45;2.33;;;2.60;99.90;;;;;;5016998;28;20225;-82
2022/01/08 04:10:28;;;;;;;2.50;2.30;;;2.60;99.90;;;;;;5017265;28;20223;-82
2022/01/08 04:12:57;;;;;;;4.40;2.22;;;2.60;99.90;;;;;;5019139;28;20269;-82
2022/01/08 04:15:39;;;;;;;2.10;1.90;;;2.50;99.90;;;;;;5019010;28;20229;-81
2022/01/08 04:18:08;;;;;;;4.88;2.75;;;2.50;99.90;;;;;;5018835;28;20195;-82
2022/01/08 04:20:39;;;;;;;3.83;3.38;;;2.50;99.90;;;;;;5018273;28;20231;-81
2022/01/08 04:23:05;;;;;;;2.50;2.35;;;2.50;99.90;;;;;;5018724;28;20231;-81
2022/01/08 04:25:32;;;;;;;3.67;2.95;;;2.50;99.90;;;;;;5019751;28;20230;-82
2022/01/08 04:27:59;;;;;;;3.05;2.67;;;2.50;99.90;;;;;;5018280;28;20219;-83
2022/01/08 04:30:26;;;;;;;2.30;2.20;;;2.50;99.90;;;;;;5017922;28;20203;-82
2022/01/08 04:32:52;;;;;;;1.83;1.73;;;2.50;99.90;;;;;;5018136;28;20570;-83
2022/01/08 04:35:20;;;;;;;3.47;2.22;;;2.60;99.90;;;;;;5018459;28;20226;-82
2022/01/08 04:37:47;;;;;;;2.30;2.20;;;2.50;99.90;;;;;;5017490;28;20203;-84
2022/01/08 04:40:14;;;;;;;2.28;2.10;;;2.50;99.90;;;;;;5016324;28;20259;-81
2022/01/08 04:42:41;;;;;;;2.45;2.28;;;2.50;99.90;;;;;;5016584;28;20582;-82
2022/01/08 04:45:08;;;;;;;2.88;2.60;;;2.50;99.90;;;;;;5015906;28;20231;-82
2022/01/08 04:47:35;;;;;;;1.80;1.70;;;2.50;99.90;;;;;;5022262;28;20252;-85
2022/01/08 04:50:01;;;;;;;2.33;1.92;;;2.40;99.90;;;;;;5022972;28;20209;-83
2022/01/08 04:52:29;;;;;;;2.28;2.00;;;2.40;99.90;;;;;;5023568;28;20209;-84
2022/01/08 04:54:56;;;;;;;2.92;2.72;;;2.30;99.90;;;;;;5023029;28;20228;-85
2022/01/08 04:57:23;;;;;;;3.50;3.20;;;2.30;99.90;;;;;;5021705;28;20229;-85
2022/01/08 04:59:49;;;;;;;2.30;2.20;;;2.30;99.90;;;;;;5020926;28;20220;-81
2022/01/08 05:02:16;;;;;;;6.20;2.85;;;2.20;99.90;;;;;;5019665;28;20212;-85
2022/01/08 05:04:43;;;;;;;3.03;2.75;;;2.10;99.90;;;;;;5021188;28;20213;-83
2022/01/08 05:07:10;;;;;;;2.08;1.95;;;2.10;99.90;;;;;;5018006;28;20215;-83
2022/01/08 05:09:38;;;;;;;2.78;2.55;;;2.10;99.90;;;;;;5016166;28;20210;-86
2022/01/08 05:12:06;;;;;;;2.65;2.40;;;2.00;99.90;;;;;;5016747;28;20209;-83
2022/01/08 05:14:35;;;;;;;2.58;2.38;;;2.00;99.90;;;;;;4998568;28;20618;-83
2022/01/08 05:17:04;;;;;;;3.03;2.72;;;1.90;99.90;;;;;;5015880;28;20211;-85
2022/01/08 05:19:42;;;;;;;3.10;2.60;;;1.80;99.90;;;;;;5018400;28;20679;-84
2022/01/08 05:22:18;;;;;;;4.53;1.70;;;1.90;99.90;;;;;;5018634;28;20609;-85
2022/01/08 05:24:46;;;;;;;2.00;1.40;;;1.90;99.90;;;;;;5020947;28;20280;-83
2022/01/08 05:27:17;;;;;;;2.00;1.90;;;1.80;99.90;;;;;;5019582;28;20236;-83
2022/01/08 05:29:44;;;;;;;2.67;2.03;;;1.90;99.90;;;;;;5017770;28;20295;-84
2022/01/08 05:32:17;;;;;;;1.40;1.40;;;1.90;99.90;;;;;;5016700;28;20206;-85
2022/01/08 05:35:06;;;;;;;1.63;1.52;;;1.80;99.90;;;;;;5016366;28;20271;-82
2022/01/08 05:37:34;;;;;;;1.40;1.40;;;1.70;99.90;;;;;;5015279;28;20204;-84
2022/01/08 05:40:03;;;;;;;2.15;1.48;;;1.80;99.90;;;;;;5018393;28;20210;-84
2022/01/08 05:42:37;;;;;;;1.55;1.15;;;1.70;99.90;;;;;;5026574;28;20206;-85
2022/01/08 05:45:05;;;;;;;2.33;1.33;;;1.60;99.90;;;;;;5037680;28;20318;-84
2022/01/08 05:47:34;;;;;;;1.27;1.17;;;1.70;99.90;;;;;;5035354;28;20696;-84
2022/01/08 05:50:02;;;;;;;1.35;0.90;;;1.60;99.90;;;;;;5035109;28;20211;-85
2022/01/08 05:52:29;;;;;;;1.45;1.10;;;1.60;99.90;;;;;;5024598;28;20211;-84
2022/01/08 05:54:55;;;;;;;1.23;1.10;;;1.60;99.90;;;;;;5016661;28;20251;-83
2022/01/08 05:57:23;;;;;;;1.70;1.60;;;1.60;99.90;;;;;;5018495;28;20204;-84
2022/01/08 05:59:56;;;;;;;1.30;1.20;;;1.50;99.90;;;;;;5016513;28;20262;-84
2022/01/08 06:02:23;;;;;;;1.00;1.00;;;1.60;99.90;;;;;;5015437;28;20213;-84
2022/01/08 06:04:50;;;;;;;0.43;0.40;;;1.50;99.90;;;;;;5016080;28;20238;-85
2022/01/08 06:07:24;;;;;;;1.10;0.77;;;1.50;99.90;;;;;;5015897;28;20273;-85
2022/01/08 06:09:51;;;;;;;1.10;1.05;;;1.50;99.90;;;;;;5017634;28;20203;-85
2022/01/08 06:12:18;;;;;;;0.32;0.32;;;1.50;99.90;;;;;;5015178;28;20559;-84
2022/01/08 06:14:46;;;;;;;0.50;0.50;;;1.40;99.90;;;;;;5014172;28;20202;-85
2022/01/08 06:17:12;;;;;;;0.70;0.70;;;1.30;99.90;;;;;;5012947;28;20563;-86
2022/01/08 06:19:39;;;;;;;0.73;0.73;;;1.30;99.90;;;;;;5015342;28;20219;-83
2022/01/08 06:22:06;;;;;;;0.50;0.50;;;1.20;99.90;;;;;;5016889;28;20201;-85
2022/01/08 06:24:33;;;;;;;0.85;0.85;;;1.20;99.90;;;;;;5016478;28;20565;-85
2022/01/08 06:27:00;;;;;;;1.02;1.00;;;1.20;99.90;;;;;;5015276;28;20204;-84
2022/01/08 06:29:27;;;;;;;0.40;0.40;;;1.10;99.90;;;;;;5016970;28;20700;-83
2022/01/08 06:31:55;;;;;;;0.73;0.73;;;1.10;99.90;;;;;;5019342;28;20208;-84
2022/01/08 06:34:23;;;;;;;0.57;0.57;;;1.10;99.90;;;;;;5021552;28;20214;-84
2022/01/08 06:36:50;;;;;;;2.33;2.17;;;1.10;99.90;;;;;;5017425;28;20231;-83
2022/01/08 06:39:17;;;;;;;0.60;0.60;;;1.10;99.90;;;;;;5017099;28;20229;-83
2022/01/08 06:41:44;;;;;;;0.95;0.80;;;1.10;99.90;;;;;;5017378;28;20207;-84
2022/01/08 06:44:11;;;;;;;4.30;1.13;;;1.10;99.90;;;;;;5017835;28;20211;-83
2022/01/08 06:46:40;;;;;;;0.50;0.50;;;1.00;99.90;;;;;;5017255;28;20250;-84
2022/01/08 06:49:09;;;;;;;0.60;0.57;;;1.00;99.90;;;;;;5017458;28;20325;-84
2022/01/08 06:51:36;;;;;;;1.00;1.00;;;1.00;99.90;;;;;;5017804;28;20580;-84
2022/01/08 06:54:03;;;;;;;0.93;0.93;;;1.00;99.90;;;;;;5016195;28;20302;-83
2022/01/08 06:56:29;;;;;;;0.70;0.70;;;1.00;99.90;;;;;;5016207;28;20242;-83
2022/01/08 06:58:56;;;;;;;0.80;0.80;;;1.00;99.90;;;;;;5018500;28;20290;-81
2022/01/08 07:01:23;;;;;;;1.05;1.05;;;1.00;99.90;;;;;;5022892;28;20210;-82
2022/01/08 07:03:50;;;;;;;1.30;1.20;;;1.00;99.90;;;;;;5020698;28;20230;-84
2022/01/08 07:06:18;;;;;;;1.85;1.10;;;1.10;99.90;;;;;;5016403;28;20238;-85
2022/01/08 07:08:44;;;;;;;1.20;0.85;;;1.10;99.90;;;;;;5019479;28;20243;-85
2022/01/08 07:11:11;;;;;;;2.05;1.95;;;1.10;99.90;;;;;;5019795;28;20202;-83
2022/01/08 07:13:38;;;;;;;0.80;0.80;;;1.20;99.90;;;;;;5019207;28;20218;-83
2022/01/08 07:16:06;;;;;;;1.15;1.15;;;1.10;99.90;;;;;;5019183;28;20231;-84
2022/01/08 07:18:33;;;;;;;0.55;0.55;;;1.10;99.90;;;;;;5020275;28;20200;-83
2022/01/08 07:21:00;;;;;;;1.35;1.13;;;1.00;99.90;;;;;;5018847;28;20700;-83
2022/01/08 07:23:28;;;;;;;1.10;1.10;;;1.10;99.90;;;;;;5018842;28;20218;-82
2022/01/08 07:25:55;;;;;;;1.20;1.10;;;0.90;99.90;;;;;;5018992;28;20600;-82
2022/01/08 07:28:21;;;;;;;9.95;3.35;;;0.90;99.90;;;;;;5019469;28;20273;-83
2022/01/08 07:30:48;;;;;;;1.55;1.35;;;1.00;99.90;;;;;;5018127;28;20210;-83
2022/01/08 07:33:15;;;;;;;1.63;1.52;;;0.90;99.90;;;;;;5019149;28;20213;-83
2022/01/08 07:35:42;;;;;;;2.60;1.60;;;0.90;99.90;;;;;;5019021;28;20223;-83
2022/01/08 07:38:08;;;;;;;1.67;1.25;;;0.90;99.90;;;;;;5018825;28;20685;-84
2022/01/08 07:40:36;;;;;;;0.57;0.57;;;0.90;99.90;;;;;;5018800;28;20708;-83
2022/01/08 07:43:04;;;;;;;1.40;1.30;;;0.90;99.90;;;;;;5018451;28;20214;-83
2022/01/08 07:45:31;;;;;;;3.38;1.63;;;0.90;99.90;;;;;;5018275;28;20723;-83
2022/01/08 07:47:57;;;;;;;1.63;1.60;;;1.00;99.90;;;;;;5018054;28;20227;-82
2022/01/08 07:50:24;;;;;;;1.10;1.10;;;1.00;99.90;;;;;;5017874;28;20210;-82
2022/01/08 07:52:51;;;;;;;2.85;2.00;;;1.00;99.90;;;;;;5017674;28;20214;-82
2022/01/08 07:55:17;;;;;;;1.80;1.70;;;1.00;99.90;;;;;;5017547;28;20253;-80
2022/01/08 07:57:46;;;;;;;1.38;1.27;;;1.00;99.90;;;;;;5019989;28;20206;-84
2022/01/08 08:00:13;;;;;;;5.82;2.47;;;1.00;99.90;;;;;;5019447;28;20695;-83
2022/01/08 08:02:39;;;;;;;2.22;2.13;;;1.00;99.90;;;;;;5019482;28;20582;-85
2022/01/08 08:05:07;;;;;;;2.38;1.58;;;0.90;99.90;;;;;;5019359;28;20232;-82
2022/01/08 08:07:37;;;;;;;5.97;2.78;;;0.90;99.90;;;;;;5019147;28;20217;-85
2022/01/08 08:10:05;;;;;;;3.65;2.85;;;0.90;99.90;;;;;;5019183;28;20206;-78
2022/01/08 08:12:32;;;;;;;3.15;2.85;;;1.00;99.90;;;;;;5019098;28;20266;-85
2022/01/08 08:15:00;;;;;;;3.22;2.92;;;1.00;99.90;;;;;;5018721;28;20223;-83
2022/01/08 08:17:27;;;;;;;4.40;4.00;;;1.00;99.90;;;;;;5019416;28;20219;-84
2022/01/08 08:19:53;;;;;;;2.92;2.72;;;1.10;99.90;;;;;;5023375;28;20193;-82
2022/01/08 08:22:20;;;;;;;2.83;2.63;;;1.10;99.90;;;;;;5024900;28;20685;-85
2022/01/08 08:24:47;;;;;;;8.10;3.15;;;1.10;99.90;;;;;;5021001;28;20199;-84
2022/01/08 08:27:13;;;;;;;4.30;2.90;;;1.20;99.90;;;;;;5020315;28;20319;-84
2022/01/08 08:29:41;;;;;;;3.58;3.22;;;1.20;99.90;;;;;;5019370;28;20580;-84
2022/01/08 08:32:09;;;;;;;2.08;1.98;;;1.20;99.90;;;;;;5019012;28;20199;-85
2022/01/08 08:34:36;;;;;;;5.30;2.60;;;1.20;99.90;;;;;;5019164;28;20208;-84
2022/01/08 08:37:04;;;;;;;4.68;2.38;;;1.30;99.90;;;;;;5019347;28;20703;-87
2022/01/08 08:39:31;;;;;;;2.95;2.20;;;1.30;99.90;;;;;;5019027;28;20234;-84
2022/01/08 08:41:57;;;;;;;3.67;2.00;;;1.30;99.90;;;;;;5019505;28;20203;-84
2022/01/08 08:44:24;;;;;;;2.75;2.20;;;1.30;99.90;;;;;;5019353;28;20215;-85
2022/01/08 08:46:51;;;;;;;1.67;1.58;;;1.40;99.90;;;;;;5018982;28;20239;-85
2022/01/08 08:49:19;;;;;;;4.70;1.95;;;1.40;99.90;;;;;;5019363;28;20230;-84
2022/01/08 08:51:45;;;;;;;1.20;1.08;;;1.40;99.90;;;;;;5022334;28;20202;-84
2022/01/08 08:54:12;;;;;;;3.15;1.70;;;1.50;99.90;;;;;;5027364;28;20217;-83
2022/01/08 08:56:39;;;;;;;4.05;2.63;;;1.50;99.90;;;;;;5026484;28;20219;-84
2022/01/08 08:59:06;;;;;;;6.40;2.42;;;1.60;99.90;;;;;;5026337;28;20199;-85
2022/01/08 09:01:32;;;;;;;2.78;2.20;;;1.70;99.90;;;;;;5025390;28;20199;-81
2022/01/08 09:03:59;;;;;;;2.53;2.40;;;1.70;99.90;;;;;;5024966;28;20819;-81
2022/01/08 09:06:27;;;;;;;2.30;2.10;;;1.70;99.90;;;;;;5021961;28;20222;-81
2022/01/08 09:08:54;;;;;;;1.58;1.05;;;1.60;99.90;;;;;;5019453;28;20228;-82
2022/01/08 09:11:21;;;;;;;2.47;2.10;;;1.70;99.90;;;;;;5018532;28;20685;-82
2022/01/08 09:13:47;;;;;;;3.13;1.70;;;1.60;99.90;;;;;;5018817;28;20215;-82
2022/01/08 09:16:14;;;;;;;2.75;2.55;;;1.60;99.90;;;;;;5017705;28;20708;-82
2022/01/08 09:18:41;;;;;;;1.73;1.63;;;1.60;99.90;;;;;;5018583;28;20586;-82
2022/01/08 09:21:08;;;;;;;1.92;1.73;;;1.60;99.90;;;;;;5017833;28;20200;-83
2022/01/08 09:23:37;;;;;;;1.88;1.73;;;1.70;99.90;;;;;;5018769;28;20214;-85
2022/01/08 09:26:05;;;;;;;4.35;2.13;;;1.60;99.90;;;;;;5017921;28;20226;-82
2022/01/08 09:28:32;;;;;;;3.42;2.40;;;1.70;99.90;;;;;;5018281;28;20221;-85
2022/01/08 09:31:01;;;;;;;2.22;2.13;;;1.80;99.90;;;;;;5017200;28;20290;-84
2022/01/08 09:33:28;;;;;;;2.55;2.17;;;1.90;99.90;;;;;;5018713;28;20632;-86
2022/01/08 09:35:55;;;;;;;2.38;2.08;;;2.00;99.90;;;;;;5018702;28;20228;-86
2022/01/08 09:38:21;;;;;;;2.65;1.85;;;2.00;99.90;;;;;;5019700;28;20244;-86
2022/01/08 09:40:50;;;;;;;1.90;1.80;;;2.20;99.90;;;;;;5019806;28;20234;-84
2022/01/08 09:43:18;;;;;;;2.10;2.00;;;2.20;99.90;;;;;;5018738;28;20214;-84
2022/01/08 09:45:45;;;;;;;6.30;2.15;;;2.10;99.90;;;;;;5014293;28;20224;-84
2022/01/08 09:48:12;;;;;;;2.13;1.80;;;2.10;99.90;;;;;;5017648;28;20204;-85
2022/01/08 09:50:42;;;;;;;4.10;2.20;;;2.10;99.90;;;;;;5017268;28;20641;-84
2022/01/08 09:53:09;;;;;;;2.47;2.33;;;2.20;99.90;;;;;;5017652;28;20206;-86
2022/01/08 09:55:36;;;;;;;2.88;2.50;;;2.20;99.90;;;;;;5018099;28;20630;-86
2022/01/08 09:58:04;;;;;;;1.98;1.80;;;2.30;99.90;;;;;;5016354;28;20212;-86
2022/01/08 10:00:32;;;;;;;2.50;2.30;;;2.00;99.90;;;;;;5019757;28;20200;-85
2022/01/08 10:03:14;;;;;;;1.70;1.60;;;2.00;99.90;;;;;;5025255;28;20228;-86
2022/01/08 10:05:44;;;;;;;4.75;2.15;;;1.90;99.90;;;;;;5024299;28;20335;-85
2022/01/08 10:08:13;;;;;;;3.08;2.88;;;1.90;99.90;;;;;;5023222;28;20219;-85
2022/01/08 10:10:40;;;;;;;2.42;2.15;;;1.90;99.90;;;;;;5024983;28;20199;-84
2022/01/08 10:13:22;;;;;;;5.13;2.17;;;2.00;99.90;;;;;;5021215;28;20213;-85
2022/01/08 10:18:36;;;;;;;1.80;1.70;;;2.20;99.90;;;;;;5020607;28;20676;-85
2022/01/08 10:21:20;;;;;;;3.10;2.60;;;2.30;99.90;;;;;;5024027;28;20235;-85
2022/01/08 10:23:48;;;;;;;2.95;1.98;;;2.40;99.90;;;;;;5015837;28;20220;-85
2022/01/08 10:26:17;;;;;;;7.25;2.10;;;2.40;99.90;;;;;;5016026;28;20222;-85
2022/01/08 10:28:47;;;;;;;3.75;1.40;;;2.50;99.90;;;;;;5017813;28;20260;-85
2022/01/08 10:31:21;;;;;;;2.60;2.33;;;2.40;99.90;;;;;;5015447;28;20688;-85
2022/01/08 10:33:49;;;;;;;1.92;1.70;;;2.50;99.90;;;;;;5018662;28;20197;-85
2022/01/08 10:36:21;;;;;;;2.00;1.90;;;2.60;99.90;;;;;;5016203;28;20226;-85
2022/01/08 10:38:51;;;;;;;2.13;1.92;;;2.60;99.90;;;;;;5015548;28;20203;-84
2022/01/08 10:41:18;;;;;;;1.17;1.17;;;2.60;99.90;;;;;;5017439;28;20263;-84
2022/01/08 10:43:46;;;;;;;1.83;1.73;;;2.50;99.90;;;;;;5018461;28;20255;-86
2022/01/08 10:46:16;;;;;;;6.68;2.00;;;2.60;99.90;;;;;;5020557;28;20338;-85
2022/01/08 10:48:45;;;;;;;2.05;1.92;;;2.70;99.90;;;;;;5021590;28;20262;-86
2022/01/08 10:51:18;;;;;;;2.70;2.45;;;2.40;99.90;;;;;;5021678;28;20213;-85
2022/01/08 10:54:10;;;;;;;3.53;1.67;;;2.50;99.90;;;;;;5023353;28;20192;-84
2022/01/08 10:56:39;;;;;;;2.85;2.35;;;2.60;99.90;;;;;;5020666;28;20235;-85
2022/01/08 10:59:21;;;;;;;2.05;1.95;;;2.70;99.90;;;;;;5019635;28;20210;-83
2022/01/08 11:01:52;;;;;;;1.73;1.55;;;2.80;99.90;;;;;;5020224;28;20239;-84
2022/01/08 11:04:30;;;;;;;2.20;2.10;;;2.80;99.90;;;;;;5020607;28;20203;-85
2022/01/08 11:06:59;;;;;;;1.38;1.27;;;2.80;99.90;;;;;;5019609;28;20238;-84
2022/01/08 11:09:28;;;;;;;3.30;2.13;;;2.90;99.90;;;;;;5020507;28;20230;-83
2022/01/08 11:11:57;;;;;;;1.52;1.42;;;3.20;99.90;;;;;;5020922;28;20213;-84
2022/01/08 11:17:16;;;;;;;1.20;1.10;;;4.90;99.90;;;;;;4998417;28;20563;-83
2022/01/08 11:19:45;;;;;;;2.97;1.33;;;6.00;99.90;;;;;;5034913;28;20202;-85
2022/01/08 11:22:13;;;;;;;1.20;1.08;;;6.80;99.90;;;;;;5026429;28;20207;-84
2022/01/08 11:24:50;;;;;;;1.58;1.20;;;7.10;99.90;;;;;;5034975;28;20201;-84
2022/01/08 11:27:21;;;;;;;1.40;1.30;;;6.70;98.40;;;;;;5038008;28;20630;-83
2022/01/08 11:29:56;;;;;;;1.45;1.10;;;6.30;98.50;;;;;;5038421;28;20573;-83
2022/01/08 11:32:26;;;;;;;2.72;1.67;;;6.20;99.60;;;;;;4998792;28;20271;-84
2022/01/08 11:34:54;;;;;;;4.55;1.50;;;6.30;99.90;;;;;;4998536;28;20223;-82
2022/01/08 11:37:23;;;;;;;8.52;2.42;;;6.30;99.90;;;;;;5015416;28;20199;-84
2022/01/08 11:39:51;;;;;;;1.65;1.55;;;6.60;99.90;;;;;;5031477;28;20201;-84
2022/01/08 11:42:20;;;;;;;2.97;1.58;;;6.80;99.30;;;;;;5031403;28;20686;-84
2022/01/08 11:44:50;;;;;;;2.67;1.60;;;6.70;98.90;;;;;;5019336;28;20234;-84
2022/01/08 11:47:19;;;;;;;2.40;1.23;;;6.70;98.00;;;;;;5019402;28;20218;-84
2022/01/08 11:49:47;;;;;;;1.40;1.27;;;6.40;98.60;;;;;;5018034;28;20229;-85
2022/01/08 11:52:15;;;;;;;2.17;1.50;;;6.10;98.70;;;;;;5015974;28;20261;-84
2022/01/08 11:54:42;;;;;;;3.25;1.25;;;5.70;98.70;;;;;;5028027;28;20199;-84
2022/01/08 11:57:16;;;;;;;4.53;2.15;;;5.30;99.10;;;;;;5037875;28;20237;-83
2022/01/08 11:59:43;;;;;;;2.70;1.20;;;5.00;99.90;;;;;;5038159;28;20186;-83
2022/01/08 12:02:13;;;;;;;1.70;1.60;;;5.00;99.90;;;;;;5034379;28;20199;-84
2022/01/08 12:04:41;;;;;;;2.45;1.38;;;4.80;99.90;;;;;;5017512;28;20215;-83
2022/01/08 12:07:31;;;;;;;2.28;1.67;;;4.80;99.90;;;;;;5017811;28;20227;-85
2022/01/08 12:10:19;;;;;;;11.43;2.15;;;4.60;99.90;;;;;;5017621;28;20236;-83
2022/01/08 12:12:48;;;;;;;1.90;1.58;;;4.30;99.90;;;;;;5017375;28;20190;-83
2022/01/08 12:15:16;;;;;;;1.92;1.83;;;4.20;99.90;;;;;;5016525;28;20317;-83
2022/01/08 12:17:56;;;;;;;1.88;1.55;;;4.30;99.90;;;;;;5017659;28;20605;-83
2022/01/08 12:20:42;;;;;;;0.70;0.70;;;4.40;99.90;;;;;;5016712;28;20195;-83
2022/01/08 12:23:24;;;;;;;1.40;1.30;;;4.70;99.90;;;;;;4998478;28;20207;-83
2022/01/08 12:25:51;;;;;;;4.63;1.35;;;4.70;99.90;;;;;;4994975;28;20226;-82
2022/01/08 12:28:40;;;;;;;1.60;1.50;;;4.70;99.90;;;;;;4997780;28;20215;-83
2022/01/08 12:31:37;;;;;;;3.80;1.80;;;4.70;99.90;;;;;;4998169;28;20634;-86
2022/01/08 12:34:35;;;;;;;3.72;1.85;;;5.00;99.90;;;;;;5016115;28;20209;-82
2022/01/08 12:37:03;;;;;;;2.63;1.77;;;5.10;99.90;;;;;;5018571;28;20588;-83
2022/01/08 12:39:48;;;;;;;2.78;1.38;;;4.90;99.90;;;;;;5018339;28;20734;-83
2022/01/08 12:42:38;;;;;;;1.50;1.40;;;5.20;99.90;;;;;;5016689;28;20195;-84
2022/01/08 12:45:09;;;;;;;2.35;1.75;;;5.60;99.90;;;;;;5016545;28;20233;-83
2022/01/08 12:47:50;;;;;;;2.10;1.80;;;5.70;99.90;;;;;;5016694;28;20202;-83
2022/01/08 12:50:21;;;;;;;1.52;1.42;;;6.10;99.90;;;;;;5015120;28;20242;-86
2022/01/08 12:53:14;;;;;;;4.05;1.70;;;7.20;99.90;;;;;;5016440;28;20199;-83
2022/01/08 12:55:43;;;;;;;2.45;2.25;;;8.20;98.80;;;;;;5015938;28;20283;-82
2022/01/08 12:58:25;;;;;;;4.13;1.80;;;9.40;98.50;;;;;;5015567;28;20199;-86
2022/01/08 13:00:54;;;;;;;1.27;1.17;;;10.30;94.20;;;;;;5016035;28;20203;-82
2022/01/08 13:03:23;;;;;;;3.38;1.35;;;9.90;91.70;;;;;;5015680;28;20628;-81
2022/01/08 13:05:51;;;;;;;1.73;1.63;;;9.70;91.60;;;;;;5043943;23;20611;-79
2022/01/08 13:08:25;;;;;;;1.42;1.33;;;9.60;92.60;;;;;;5041040;28;20248;-77
2022/01/08 13:11:00;;;;;;;1.48;1.38;;;8.40;92.00;;;;;;5053130;28;20221;-78
2022/01/08 13:13:27;;;;;;;2.15;1.92;;;7.10;93.00;;;;;;5067761;28;20202;-78
2022/01/08 13:15:55;;;;;;;1.55;1.45;;;6.50;94.60;;;;;;5064817;28;20213;-78
2022/01/08 13:18:23;;;;;;;2.00;1.80;;;6.00;95.90;;;;;;5048090;28;20209;-79
2022/01/08 13:21:02;;;;;;;1.83;1.65;;;5.80;96.80;;;;;;5047692;28;20197;-79
2022/01/08 13:23:28;;;;;;;1.60;1.50;;;5.30;97.70;;;;;;5046941;28;20198;-79
2022/01/08 13:25:56;;;;;;;1.80;1.70;;;5.00;98.20;;;;;;5046960;28;20216;-79
2022/01/08 13:28:24;;;;;;;1.55;1.45;;;4.80;98.80;;;;;;5047125;28;20225;-78